Terminal Aerodrome Forecast
Issued by NWS

Home | Current Version | Previous Version | Text Only | Print | Product List | Glossary On
Versions: 1 2 3 4 5 6 7 8 9 10 11 12 13 14 15 16 17 18
000
FTUS44 KLZK 220526
TAFLIT
TAF
KLIT 220526Z 2206/2306 15007KT P6SM -TSRA SCT025CB OVC050
     FM220800 23006KT P6SM VCSH SCT010 OVC050
      TEMPO 2210/2214 4SM -TSRA BR BKN008 OVC025CB
     FM221400 25010KT P6SM VCTS OVC030CB
     FM221600 25008KT P6SM VCSH SCT030 BKN050 OVC100=

USA.gov is the U.S. government's official web portal to all federal, state and local government web resources and services.